Time;durP1;ratioP1;P1;durP2;ratioP2;P2;SDS_P1;SDS_P2;PMS_P1;PMS_P2;Temp;Humidity;BMP_temperature;BMP_pressure;BME280_temperature;BME280_humidity;BME280_pressure;Samples;Min_cycle;Max_cycle;Signal;HPM_P1;HPM_P2
2023/10/10 00:01:03;;;;;;;;;;;15.40;99.90;;;;;;5096660;27;20294;-87
2023/10/10 00:03:31;;;;;;;;;;;15.80;99.90;;;;;;5094609;27;20301;-87
2023/10/10 00:06:06;;;;;;;;;;;15.40;99.90;;;;;;5086626;27;19923;-87
2023/10/10 00:08:35;;;;;;;;;;;15.40;99.90;;;;;;5101005;28;20330;-87
2023/10/10 00:11:14;;;;;;;;;;;15.40;99.90;;;;;;5077289;27;19923;-87
2023/10/10 00:13:42;;;;;;;;;;;15.40;99.90;;;;;;5094622;27;19927;-86
2023/10/10 00:16:11;;;;;;;;;;;15.40;99.90;;;;;;5080962;27;19920;-87
2023/10/10 00:18:43;;;;;;;;;;;15.40;99.90;;;;;;5092555;27;19978;-87
2023/10/10 00:21:10;;;;;;;;;;;15.40;99.90;;;;;;5093950;28;19927;-88
2023/10/10 00:23:42;;;;;;;;;;;15.40;99.90;;;;;;5091731;28;20019;-87
2023/10/10 00:26:14;;;;;;;;;;;15.40;99.90;;;;;;5090158;28;19924;-86
2023/10/10 00:28:41;;;;;;;;;;;15.40;99.90;;;;;;5092028;28;19964;-87
2023/10/10 00:31:12;;;;;;;;;;;15.40;99.90;;;;;;5075073;28;19927;-86
2023/10/10 00:33:40;;;;;;;;;;;15.90;99.90;;;;;;5092068;28;20297;-87
2023/10/10 00:36:20;;;;;;;;;;;15.40;99.90;;;;;;5088666;27;19987;-87
2023/10/10 00:38:49;;;;;;;;;;;15.40;99.90;;;;;;5079470;27;19926;-86
2023/10/10 00:41:15;;;;;;;;;;;15.40;99.90;;;;;;5074079;27;19924;-87
2023/10/10 00:43:41;;;;;;;;;;;15.40;99.90;;;;;;5091563;28;19959;-86
2023/10/10 00:46:07;;;;;;;;;;;15.40;99.90;;;;;;5093823;27;19920;-87
2023/10/10 00:48:33;;;;;;;;;;;15.40;99.90;;;;;;5075285;28;20006;-87
2023/10/10 00:51:12;;;;;;;;;;;15.50;99.90;;;;;;5092368;27;20363;-87
2023/10/10 00:53:39;;;;;;;;;;;15.40;99.90;;;;;;5075358;28;19934;-87
2023/10/10 00:56:08;;;;;;;;;;;15.70;99.90;;;;;;5096405;28;19926;-87
2023/10/10 00:58:40;;;;;;;;;;;15.30;99.90;;;;;;5091758;28;20023;-87
2023/10/10 01:01:10;;;;;;;;;;;15.40;99.90;;;;;;5097817;27;19923;-86
2023/10/10 01:03:43;;;;;;;;;;;15.40;99.90;;;;;;5095884;28;19943;-87
2023/10/10 01:06:14;;;;;;;;;;;15.40;99.90;;;;;;5075284;27;19931;-87
2023/10/10 01:08:50;;;;;;;;;;;15.70;99.90;;;;;;5085426;27;19920;-87
2023/10/10 01:11:16;;;;;;;;;;;15.40;99.90;;;;;;5093278;27;19942;-87
2023/10/10 01:13:42;;;;;;;;;;;15.40;99.90;;;;;;5074957;28;20006;-86
2023/10/10 01:16:08;;;;;;;;;;;15.40;99.90;;;;;;5077304;28;19930;-87
2023/10/10 01:18:57;;;;;;;;;;;15.40;99.90;;;;;;5098629;27;20032;-87
2023/10/10 01:21:43;;;;;;;;;;;15.40;99.90;;;;;;5081499;28;19969;-87
2023/10/10 01:24:15;;;;;;;;;;;15.50;99.90;;;;;;5079838;28;19927;-87
2023/10/10 01:26:44;;;;;;;;;;;15.40;99.90;;;;;;5075133;28;19924;-86
2023/10/10 01:29:25;;;;;;;;;;;15.40;99.90;;;;;;5094112;28;19923;-87
2023/10/10 01:31:52;;;;;;;;;;;15.40;99.90;;;;;;5075152;27;19920;-87
2023/10/10 01:34:43;;;;;;;;;;;15.40;99.90;;;;;;5098105;28;19968;-87
2023/10/10 01:37:30;;;;;;;;;;;15.40;99.90;;;;;;5102072;28;19919;-87
2023/10/10 01:40:16;;;;;;;;;;;15.40;99.90;;;;;;5093364;28;19927;-87
2023/10/10 01:42:53;;;;;;;;;;;15.40;99.90;;;;;;5101124;28;19964;-87
2023/10/10 01:45:20;;;;;;;;;;;15.40;99.90;;;;;;5091153;28;19927;-88
2023/10/10 01:47:57;;;;;;;;;;;15.40;99.90;;;;;;5090693;28;19919;-87
2023/10/10 01:50:26;;;;;;;;;;;15.40;99.90;;;;;;5093056;28;19926;-87
2023/10/10 01:52:56;;;;;;;;;;;15.40;99.90;;;;;;5094187;28;19923;-87
2023/10/10 01:55:24;;;;;;;;;;;15.40;99.90;;;;;;5092776;28;19920;-87
2023/10/10 01:57:53;;;;;;;;;;;15.40;99.90;;;;;;5101370;28;19927;-87
2023/10/10 02:00:26;;;;;;;;;;;15.90;99.90;;;;;;5086248;28;19971;-87
2023/10/10 02:02:53;;;;;;;;;;;15.40;99.90;;;;;;5093992;28;20271;-87
2023/10/10 02:08:09;;;;;;;;;;;15.40;99.90;;;;;;5098855;27;19920;-86
2023/10/10 02:10:36;;;;;;;;;;;15.40;99.90;;;;;;5079172;27;19920;-88
2023/10/10 02:13:05;;;;;;;;;;;15.40;99.90;;;;;;5077584;28;19926;-87
2023/10/10 02:15:36;;;;;;;;;;;15.40;99.90;;;;;;5083293;27;20279;-87
2023/10/10 02:18:05;;;;;;;;;;;15.90;99.90;;;;;;5079266;27;19935;-87
2023/10/10 02:20:49;;;;;;;;;;;15.40;99.90;;;;;;5109977;27;19920;-88
2023/10/10 02:23:31;;;;;;;;;;;15.40;99.90;;;;;;5079058;28;19927;-87
2023/10/10 02:26:03;;;;;;;;;;;15.40;99.90;;;;;;5094975;27;19920;-87
2023/10/10 02:28:49;;;;;;;;;;;15.60;99.90;;;;;;5081597;27;20005;-87
2023/10/10 02:31:27;;;;;;;;;;;15.80;99.90;;;;;;5101271;28;19919;-87
2023/10/10 02:34:03;;;;;;;;;;;15.40;99.90;;;;;;5102606;27;19920;-88
2023/10/10 02:36:33;;;;;;;;;;;15.50;99.90;;;;;;5079017;28;20293;-87
2023/10/10 02:39:10;;;;;;;;;;;15.40;99.90;;;;;;5106088;27;19966;-87
2023/10/10 02:41:39;;;;;;;;;;;15.40;99.90;;;;;;5105975;28;20299;-87
2023/10/10 02:44:09;;;;;;;;;;;15.40;99.90;;;;;;5100086;27;20387;-88
2023/10/10 02:46:39;;;;;;;;;;;15.30;99.90;;;;;;5098749;27;19920;-89
2023/10/10 02:49:22;;;;;;;;;;;15.30;99.90;;;;;;5095904;27;19931;-88
2023/10/10 02:51:55;;;;;;;;;;;15.30;99.90;;;;;;5081070;27;20611;-87
2023/10/10 02:57:39;;;;;;;;;;;15.50;99.90;;;;;;5096264;28;20006;-87
2023/10/10 02:59:38;;;;;;;;;;;14.90;99.90;;;;;;5083482;27;19923;-87
2023/10/10 03:02:18;;;;;;;;;;;15.20;99.90;;;;;;5103156;27;19919;-87
2023/10/10 03:07:29;;;;;;;;;;;15.40;99.90;;;;;;5099528;27;19974;-87
2023/10/10 03:10:22;;;;;;;;;;;15.00;99.90;;;;;;5110740;27;20641;-87
2023/10/10 03:12:51;;;;;;;;;;;15.00;99.90;;;;;;5087825;27;19943;-88
2023/10/10 03:17:52;;;;;;;;;;;15.40;99.90;;;;;;5099311;27;19919;-88
2023/10/10 03:26:04;;;;;;;;;;;14.80;99.90;;;;;;5093805;27;19919;-87
2023/10/10 03:28:47;;;;;;;;;;;14.80;99.90;;;;;;5103746;28;19926;-87
2023/10/10 05:25:23;;;;;;;;;;;14.60;99.90;;;;;;5099523;27;19939;-85
2023/10/10 05:27:52;;;;;;;;;;;15.00;99.90;;;;;;5092565;27;20000;-85
2023/10/10 05:30:39;;;;;;;;;;;14.90;99.90;;;;;;5081586;27;20364;-86
2023/10/10 05:33:05;;;;;;;;;;;15.30;99.90;;;;;;5110470;27;19931;-85
2023/10/10 05:35:38;;;;;;;;;;;15.40;99.90;;;;;;5090834;28;19920;-85
2023/10/10 05:38:04;;;;;;;;;;;14.90;99.90;;;;;;5090887;28;19919;-86
2023/10/10 05:40:34;;;;;;;;;;;14.80;99.90;;;;;;5078733;28;19965;-87
2023/10/10 05:43:00;;;;;;;;;;;14.80;99.90;;;;;;5100227;28;19920;-87
2023/10/10 05:45:26;;;;;;;;;;;15.40;99.90;;;;;;5073419;28;19927;-87
2023/10/10 05:47:52;;;;;;;;;;;14.80;99.90;;;;;;5091003;28;19989;-87
2023/10/10 05:50:18;;;;;;;;;;;14.80;99.90;;;;;;5090231;28;20402;-86
2023/10/10 05:52:44;;;;;;;;;;;14.70;99.90;;;;;;5071212;28;19920;-86
2023/10/10 05:55:11;;;;;;;;;;;14.80;99.90;;;;;;5090299;28;19932;-86
2023/10/10 05:57:37;;;;;;;;;;;14.70;99.90;;;;;;5094270;28;20031;-88
2023/10/10 06:00:07;;;;;;;;;;;15.20;99.90;;;;;;5100879;28;19931;-88
2023/10/10 06:02:32;;;;;;;;;;;14.70;99.90;;;;;;5089884;28;20381;-87
2023/10/10 06:04:58;;;;;;;;;;;14.70;99.90;;;;;;5089370;28;19920;-88
2023/10/10 06:07:23;;;;;;;;;;;14.70;99.90;;;;;;5080515;28;19919;-87
2023/10/10 06:09:51;;;;;;;;;;;14.60;99.90;;;;;;5072511;28;19988;-89
2023/10/10 06:12:18;;;;;;;;;;;14.60;99.90;;;;;;5081194;28;19974;-89
2023/10/10 06:14:46;;;;;;;;;;;15.00;99.90;;;;;;5108620;28;19928;-89
2023/10/10 06:17:12;;;;;;;;;;;14.60;99.90;;;;;;5076894;28;19976;-89
2023/10/10 06:19:38;;;;;;;;;;;14.60;99.90;;;;;;5089087;28;20536;-86
2023/10/10 06:22:08;;;;;;;;;;;14.70;99.90;;;;;;5072006;28;20415;-87
2023/10/10 06:24:34;;;;;;;;;;;14.60;99.90;;;;;;5079015;28;20396;-87
2023/10/10 06:27:00;;;;;;;;;;;14.90;99.90;;;;;;5079255;28;19928;-89
2023/10/10 06:29:34;;;;;;;;;;;14.70;99.90;;;;;;5090316;28;19934;-89
2023/10/10 06:32:00;;;;;;;;;;;14.70;99.90;;;;;;5079706;28;20009;-88
2023/10/10 06:34:34;;;;;;;;;;;14.80;99.90;;;;;;5075838;28;21392;-85
2023/10/10 06:37:07;;;;;;;;;;;14.80;99.90;;;;;;5104902;28;20393;-90
2023/10/10 06:39:33;;;;;;;;;;;14.90;99.90;;;;;;5091751;28;20024;-88
2023/10/10 09:19:42;;;;;;;54.05;36.10;;;17.60;99.90;;;;;;5024818;27;1258361;-86
2023/10/10 09:22:25;;;;;;;63.37;39.70;;;17.60;99.90;;;;;;5024355;28;20064;-87
2023/10/10 09:24:55;;;;;;;58.33;36.58;;;17.70;99.90;;;;;;5033923;28;20045;-87
2023/10/10 09:27:27;;;;;;;51.45;36.30;;;17.90;99.90;;;;;;5045155;28;20474;-90
2023/10/10 09:29:56;;;;;;;52.85;37.13;;;17.80;99.90;;;;;;5052649;28;20044;-89
2023/10/10 09:32:36;;;;;;;50.22;35.88;;;18.10;99.90;;;;;;5040986;28;20045;-90
2023/10/10 09:35:08;;;;;;;51.03;35.63;;;18.30;99.90;;;;;;5047622;28;20041;-91
2023/10/10 09:37:38;;;;;;;51.03;35.55;;;18.30;99.90;;;;;;5031335;28;20116;-91
2023/10/10 09:40:15;;;;;;;47.72;35.08;;;18.30;99.90;;;;;;5041357;28;20053;-89
2023/10/10 09:42:53;;;;;;;50.90;34.83;;;18.40;99.90;;;;;;5031936;28;20053;-91
2023/10/10 09:48:27;;;;;;;47.03;33.38;;;18.80;99.90;;;;;;5026316;28;20053;-88
2023/10/10 09:51:30;;;;;;;45.10;32.13;;;18.60;99.90;;;;;;5026588;28;20052;-86
2023/10/10 09:56:50;;;;;;;40.85;31.90;;;18.80;99.90;;;;;;5045153;28;20103;-85
2023/10/10 09:59:20;;;;;;;42.47;30.77;;;18.80;99.90;;;;;;5029240;28;20041;-87
2023/10/10 10:01:47;;;;;;;44.70;31.98;;;19.20;99.90;;;;;;5009176;28;20062;-85
2023/10/10 10:04:19;;;;;;;41.38;30.58;;;19.00;99.90;;;;;;5010136;28;20041;-84
2023/10/10 10:06:51;;;;;;;;;;;19.00;99.90;;;;;;5031178;28;20128;-85
2023/10/10 10:09:55;;;;;;;39.22;27.83;;;19.10;99.90;;;;;;5027035;28;19928;-87
2023/10/10 10:12:44;;;;;;;36.33;28.05;;;19.20;99.90;;;;;;5041266;28;20731;-84
2023/10/10 10:15:48;;;;;;;37.53;28.55;;;19.30;99.90;;;;;;5011112;28;20080;-85
2023/10/10 10:18:26;;;;;;;38.70;28.73;;;19.40;99.90;;;;;;5041165;28;20049;-89
2023/10/10 10:23:38;;;;;;;33.53;24.70;;;19.60;99.90;;;;;;5025786;28;20049;-85
2023/10/10 10:26:11;;;;;;;30.50;23.05;;;19.70;99.90;;;;;;5042302;28;20126;-85
2023/10/10 10:28:37;;;;;;;34.85;22.58;;;19.70;99.90;;;;;;5026118;28;20076;-84
2023/10/10 10:31:16;;;;;;;30.20;22.85;;;19.80;99.90;;;;;;4995097;28;20104;-84
2023/10/10 10:34:10;;;;;;;33.53;22.27;;;19.70;99.90;;;;;;5029578;28;20475;-86
2023/10/10 10:36:45;;;;;;;28.92;20.70;;;19.80;99.90;;;;;;5000425;28;20081;-84
2023/10/10 10:39:38;;;;;;;26.55;20.50;;;19.90;99.90;;;;;;5011798;28;20045;-84
2023/10/10 10:42:12;;;;;;;27.05;20.73;;;19.90;99.90;;;;;;5004910;28;20045;-84
2023/10/10 10:47:34;;;;;;;27.33;19.83;;;20.00;99.90;;;;;;5010724;28;20045;-84
2023/10/10 10:50:02;;;;;;;28.88;21.30;;;20.00;99.90;;;;;;5011228;28;20089;-84
2023/10/10 10:52:48;;;;;;;26.02;19.73;;;20.20;99.90;;;;;;5011041;28;20042;-84
2023/10/10 10:55:22;;;;;;;29.40;20.75;;;20.30;99.90;;;;;;4994981;28;20040;-84
2023/10/10 10:58:05;;;;;;;27.85;20.02;;;20.30;99.90;;;;;;5029257;28;20049;-85
2023/10/10 11:03:43;;;;;;;26.52;19.38;;;20.50;99.90;;;;;;5010620;28;20088;-86
2023/10/10 11:06:10;;;;;;;27.52;18.48;;;20.70;99.90;;;;;;5003445;28;20064;-88
2023/10/10 11:09:23;;;;;;;25.40;18.40;;;20.70;99.90;;;;;;4990685;28;20403;-86
2023/10/10 11:14:00;;;;;;;24.63;19.00;;;20.90;99.90;;;;;;5009924;28;20080;-87
2023/10/10 11:16:45;;;;;;;26.08;18.05;;;20.90;99.90;;;;;;5010289;28;20041;-87
2023/10/10 11:21:56;;;;;;;22.90;17.70;;;21.00;99.90;;;;;;5011775;28;20095;-87
2023/10/10 11:24:29;;;;;;;26.70;17.95;;;21.10;99.90;;;;;;4990217;28;20041;-88
2023/10/10 11:29:44;;;;;;;22.45;18.42;;;20.70;99.90;;;;;;5009324;28;20050;-87
2023/10/10 11:32:12;;;;;;;21.55;17.65;;;21.00;99.90;;;;;;5012196;28;20098;-87
2023/10/10 11:34:44;;;;;;;26.48;18.58;;;21.20;99.90;;;;;;5012781;28;20093;-91
2023/10/10 11:37:23;;;;;;;;;;;21.20;99.90;;;;;;4997065;28;20041;-87
2023/10/10 11:39:57;;;;;;;28.63;18.23;;;21.30;99.90;;;;;;4991075;28;20027;-86
2023/10/10 11:42:27;;;;;;;22.25;17.92;;;21.40;99.90;;;;;;5001499;28;20067;-88
2023/10/10 11:45:01;;;;;;;24.42;16.77;;;21.50;99.90;;;;;;4996674;28;20091;-86
2023/10/10 11:47:28;;;;;;;24.77;17.15;;;21.60;99.90;;;;;;4996020;28;20049;-86
2023/10/10 11:50:07;;;;;;;21.77;16.00;;;21.70;99.90;;;;;;5011581;28;20049;-89
2023/10/10 11:52:32;;;;;;;19.67;15.93;;;21.80;99.90;;;;;;5003217;28;20522;-86
2023/10/10 11:55:00;;;;;;;22.70;15.82;;;21.90;99.90;;;;;;5028100;28;20041;-85
2023/10/10 11:57:30;;;;;;;20.80;15.68;;;21.70;99.90;;;;;;5026498;28;20064;-89
2023/10/10 11:59:58;;;;;;;23.10;15.25;;;22.00;99.90;;;;;;5009355;28;20128;-86
2023/10/10 12:02:39;;;;;;;20.40;16.00;;;21.90;99.90;;;;;;5009026;28;20030;-89
2023/10/10 12:05:25;;;;;;;23.15;15.95;;;21.80;99.90;;;;;;4991955;28;20441;-89
2023/10/10 12:07:51;;;;;;;19.55;16.20;;;21.70;99.90;;;;;;5009174;28;20084;-87
2023/10/10 12:10:18;;;;;;;24.50;16.92;;;21.60;99.90;;;;;;5008903;28;20079;-88
2023/10/10 12:12:46;;;;;;;23.90;15.45;;;21.50;99.90;;;;;;5010774;28;20045;-87
2023/10/10 12:15:18;;;;;;;22.92;17.35;;;21.30;99.90;;;;;;4993234;28;20041;-89
2023/10/10 12:17:45;;;;;;;20.80;15.15;;;21.40;99.90;;;;;;5010544;28;20084;-89
2023/10/10 12:20:10;;;;;;;22.65;16.77;;;21.30;99.90;;;;;;5010440;28;20085;-88
2023/10/10 12:22:45;;;;;;;24.27;17.20;;;21.30;99.90;;;;;;4995440;28;20049;-87
2023/10/10 12:25:19;;;;;;;21.63;16.25;;;21.30;99.90;;;;;;4994879;28;20042;-87
2023/10/10 12:27:46;;;;;;;21.10;16.02;;;21.30;99.90;;;;;;5010659;28;20048;-87
2023/10/10 12:30:18;;;;;;;19.48;14.90;;;21.30;99.90;;;;;;5010093;28;20061;-86
2023/10/10 12:32:49;;;;;;;18.00;14.68;;;21.30;99.90;;;;;;4992115;28;20046;-88
2023/10/10 12:35:15;;;;;;;18.17;14.45;;;21.30;99.90;;;;;;5009922;28;20041;-87
2023/10/10 12:37:44;;;;;;;17.65;13.52;;;21.40;99.90;;;;;;5009469;28;20054;-86
2023/10/10 12:40:14;;;;;;;18.65;14.02;;;21.50;99.90;;;;;;5008565;28;20042;-86
2023/10/10 12:42:40;;;;;;;19.63;13.18;;;21.60;99.90;;;;;;5009716;28;20049;-85
2023/10/10 12:45:06;;;;;;;19.10;12.88;;;21.70;99.90;;;;;;5009885;28;20037;-85
2023/10/10 12:47:32;;;;;;;18.33;12.82;;;21.70;99.90;;;;;;5009038;28;20045;-86
2023/10/10 12:50:13;;;;;;;17.13;12.48;;;21.60;99.90;;;;;;5009302;28;20509;-86
2023/10/10 12:52:45;;;;;;;17.73;12.93;;;21.70;99.90;;;;;;5009238;28;20052;-86
2023/10/10 12:55:11;;;;;;;18.73;14.50;;;21.40;99.90;;;;;;5008125;28;20050;-87
2023/10/10 12:57:37;;;;;;;19.50;14.32;;;21.20;99.90;;;;;;5008939;28;20056;-86
2023/10/10 13:02:50;;;;;;;19.88;13.40;;;21.00;99.90;;;;;;5009013;28;20156;-85
2023/10/10 13:05:16;;;;;;;18.60;12.40;;;20.90;99.90;;;;;;5010008;28;20450;-86
2023/10/10 13:07:43;;;;;;;16.98;13.82;;;21.00;99.90;;;;;;5008093;28;20459;-85
2023/10/10 13:10:10;;;;;;;16.95;13.38;;;21.00;99.90;;;;;;5002101;28;20124;-86
2023/10/10 13:12:51;;;;;;;17.70;12.95;;;21.00;99.90;;;;;;5006780;28;20477;-85
2023/10/10 13:15:18;;;;;;;17.70;12.43;;;21.10;99.90;;;;;;5002119;28;20116;-86
2023/10/10 13:17:50;;;;;;;16.13;11.52;;;21.00;99.90;;;;;;5009249;28;20669;-85
2023/10/10 13:20:17;;;;;;;13.52;11.10;;;21.00;99.90;;;;;;4993419;28;20048;-89
2023/10/10 13:22:43;;;;;;;19.65;12.55;;;20.90;99.90;;;;;;5009177;28;20041;-86
2023/10/10 13:25:10;;;;;;;17.95;12.18;;;21.10;99.90;;;;;;5027596;28;20045;-92
2023/10/10 13:27:36;;;;;;;14.77;11.80;;;20.90;99.90;;;;;;5010421;28;20049;-90
2023/10/10 13:30:03;;;;;;;18.52;11.50;;;20.90;99.90;;;;;;5009946;28;20546;-90
2023/10/10 13:32:28;;;;;;;16.00;12.75;;;20.80;99.90;;;;;;5010212;28;20053;-87
2023/10/10 13:34:54;;;;;;;13.45;11.98;;;20.80;99.90;;;;;;5008275;28;20052;-87
2023/10/10 13:37:22;;;;;;;19.05;11.93;;;20.80;99.90;;;;;;4992889;28;20400;-87
2023/10/10 13:39:48;;;;;;;15.10;12.70;;;20.90;99.90;;;;;;5002199;28;20132;-89
2023/10/10 13:42:14;;;;;;;16.50;12.07;;;20.80;99.90;;;;;;4993180;28;20060;-88
2023/10/10 13:44:40;;;;;;;17.30;11.95;;;20.80;99.90;;;;;;4992890;28;20042;-90
2023/10/10 13:47:07;;;;;;;19.05;12.82;;;20.80;99.90;;;;;;4992937;28;20095;-86
2023/10/10 13:49:34;;;;;;;16.15;12.65;;;20.90;99.90;;;;;;5009348;28;20503;-86
2023/10/10 13:52:04;;;;;;;20.23;13.35;;;20.90;99.90;;;;;;4992954;28;20056;-87
2023/10/10 13:54:30;;;;;;;17.73;12.38;;;20.90;99.90;;;;;;5007828;28;20073;-87
2023/10/10 13:56:56;;;;;;;18.13;12.77;;;21.10;99.90;;;;;;5008768;28;20853;-86
2023/10/10 13:59:22;;;;;;;18.05;13.38;;;21.00;99.90;;;;;;5008157;28;20056;-86
2023/10/10 14:01:47;;;;;;;18.40;12.77;;;21.00;99.90;;;;;;4992505;28;20042;-87
2023/10/10 14:04:24;;;;;;;20.98;14.35;;;21.00;99.90;;;;;;5008851;28;20042;-86
2023/10/10 14:06:50;;;;;;;17.55;12.88;;;21.00;99.90;;;;;;5012685;28;20069;-86
2023/10/10 14:09:22;;;;;;;17.63;13.35;;;21.00;99.90;;;;;;4994877;28;20372;-85
2023/10/10 14:11:56;;;;;;;17.10;12.68;;;21.00;99.90;;;;;;4996120;28;20152;-86
2023/10/10 14:14:22;;;;;;;16.85;12.52;;;20.90;99.90;;;;;;5012194;28;20041;-86
2023/10/10 14:16:48;;;;;;;20.08;12.95;;;20.90;99.90;;;;;;5012888;28;20509;-87
2023/10/10 14:19:14;;;;;;;16.10;12.10;;;21.20;99.90;;;;;;4996573;28;20081;-87
2023/10/10 14:21:40;;;;;;;18.58;11.98;;;20.90;99.90;;;;;;5013066;28;20089;-87
2023/10/10 14:24:08;;;;;;;16.02;12.30;;;20.80;99.90;;;;;;5012459;28;20077;-87
2023/10/10 14:26:35;;;;;;;21.60;13.55;;;20.80;99.90;;;;;;5011854;28;20041;-86
2023/10/10 14:29:06;;;;;;;19.05;11.90;;;20.80;99.90;;;;;;5011946;28;20041;-86
2023/10/10 14:31:33;;;;;;;15.30;11.70;;;20.80;99.90;;;;;;5011693;28;20049;-87
2023/10/10 14:34:00;;;;;;;19.70;12.73;;;20.90;99.90;;;;;;4995395;28;20157;-86
2023/10/10 14:36:30;;;;;;;16.88;12.98;;;21.10;99.90;;;;;;4995748;28;20044;-87
2023/10/10 14:38:57;;;;;;;15.32;11.68;;;20.80;99.90;;;;;;5004990;28;20051;-86
2023/10/10 14:41:30;;;;;;;17.95;12.73;;;20.80;99.90;;;;;;5011406;28;20502;-87
2023/10/10 14:44:00;;;;;;;17.27;13.35;;;20.50;99.90;;;;;;5023499;28;20228;-86
2023/10/10 14:46:33;;;;;;;14.30;11.70;;;20.70;99.90;;;;;;4995313;28;20510;-87
2023/10/10 14:49:06;;;;;;;20.10;12.18;;;20.70;99.90;;;;;;5011424;28;20487;-85
2023/10/10 14:51:38;;;;;;;16.50;12.25;;;20.70;99.90;;;;;;4995645;28;20136;-87
2023/10/10 14:54:11;;;;;;;18.80;12.48;;;20.70;99.90;;;;;;5004962;28;20041;-87
2023/10/10 14:56:51;;;;;;;16.92;12.50;;;20.60;99.90;;;;;;5011562;28;20060;-86
2023/10/10 14:59:25;;;;;;;15.10;11.07;;;20.60;99.90;;;;;;5012161;28;20075;-87
2023/10/10 15:01:53;;;;;;;18.67;12.52;;;20.80;99.90;;;;;;5011779;28;20048;-87
2023/10/10 15:04:20;;;;;;;17.50;12.93;;;20.60;99.90;;;;;;5011321;28;20045;-87
2023/10/10 15:06:53;;;;;;;17.98;12.77;;;20.50;99.90;;;;;;5009906;28;20050;-86
2023/10/10 15:09:20;;;;;;;19.67;13.35;;;20.50;99.90;;;;;;4995871;28;20116;-87
2023/10/10 15:11:47;;;;;;;17.67;12.65;;;20.50;99.90;;;;;;5009426;28;20053;-87
2023/10/10 15:14:14;;;;;;;16.77;13.13;;;20.50;99.90;;;;;;5010644;28;20056;-86
2023/10/10 15:16:40;;;;;;;16.15;12.48;;;20.60;99.90;;;;;;5009692;28;20041;-86
2023/10/10 15:19:07;;;;;;;16.23;11.88;;;20.40;99.90;;;;;;5009373;28;20851;-86
2023/10/10 15:21:37;;;;;;;16.33;12.68;;;20.20;99.90;;;;;;5011799;28;20087;-86
2023/10/10 15:24:11;;;;;;;14.40;11.73;;;20.20;99.90;;;;;;5011783;28;20084;-85
2023/10/10 15:26:47;;;;;;;15.70;11.90;;;20.10;99.90;;;;;;4994560;28;20069;-86
2023/10/10 15:29:18;;;;;;;16.48;12.18;;;20.10;99.90;;;;;;4994149;28;20044;-86
2023/10/10 15:31:43;;;;;;;16.02;11.95;;;20.00;99.90;;;;;;5010643;28;20097;-86
2023/10/10 15:34:16;;;;;;;17.13;13.02;;;19.90;99.90;;;;;;4988033;28;20041;-86
2023/10/10 15:36:45;;;;;;;17.98;13.43;;;19.90;99.90;;;;;;5010951;28;20045;-86
2023/10/10 15:39:11;;;;;;;16.05;13.25;;;19.80;99.90;;;;;;4994431;28;20068;-86
2023/10/10 15:41:38;;;;;;;16.98;13.27;;;20.10;99.90;;;;;;5009547;28;20045;-85
2023/10/10 15:44:06;;;;;;;15.73;12.82;;;19.80;99.90;;;;;;5010586;28;20132;-86
2023/10/10 15:46:34;;;;;;;17.15;12.80;;;19.80;99.90;;;;;;4994032;28;20073;-86
2023/10/10 15:49:00;;;;;;;16.95;12.88;;;19.70;99.90;;;;;;5007457;28;20105;-86
2023/10/10 15:51:27;;;;;;;16.20;12.85;;;19.70;99.90;;;;;;5010616;28;20104;-86
2023/10/10 15:53:56;;;;;;;17.33;13.23;;;19.70;99.90;;;;;;4994122;28;20549;-87
2023/10/10 15:56:28;;;;;;;19.67;12.95;;;19.60;99.90;;;;;;4993082;28;20103;-86
2023/10/10 15:58:55;;;;;;;17.90;12.98;;;19.50;99.90;;;;;;5009538;28;20038;-86
2023/10/10 16:01:29;;;;;;;17.52;11.93;;;19.50;99.90;;;;;;4993527;28;20037;-86
2023/10/10 16:04:00;;;;;;;17.90;13.32;;;19.40;99.90;;;;;;4994264;28;20083;-86
2023/10/10 16:06:28;;;;;;;15.55;12.60;;;19.40;99.90;;;;;;5010389;28;20041;-86
2023/10/10 16:08:57;;;;;;;18.08;12.82;;;19.50;99.90;;;;;;5010466;28;20042;-85
2023/10/10 16:11:31;;;;;;;16.15;12.10;;;19.60;99.90;;;;;;5009167;28;20124;-86
2023/10/10 16:13:58;;;;;;;16.83;12.05;;;19.30;99.90;;;;;;5010548;28;20317;-86
2023/10/10 16:16:25;;;;;;;16.90;12.70;;;19.20;99.90;;;;;;5010054;28;20041;-86
2023/10/10 16:18:50;;;;;;;17.95;12.93;;;19.40;99.90;;;;;;4992318;28;20045;-86
2023/10/10 16:21:18;;;;;;;19.45;13.25;;;19.10;99.90;;;;;;4993706;28;20686;-86
2023/10/10 16:23:48;;;;;;;16.50;12.55;;;19.10;99.90;;;;;;5009061;28;20049;-86
2023/10/10 16:26:18;;;;;;;22.67;14.05;;;19.00;99.90;;;;;;5005921;28;20053;-87
2023/10/10 16:28:44;;;;;;;16.70;12.93;;;19.00;99.90;;;;;;5007894;28;20123;-85
2023/10/10 16:31:16;;;;;;;17.20;12.30;;;18.90;99.90;;;;;;5010018;28;20073;-88
2023/10/10 16:33:42;;;;;;;20.65;14.38;;;18.90;99.90;;;;;;5009772;28;20395;-85
2023/10/10 16:36:09;;;;;;;20.75;13.00;;;18.80;99.90;;;;;;5009446;28;20091;-86
2023/10/10 16:38:36;;;;;;;21.23;14.60;;;18.70;99.90;;;;;;5009173;28;20045;-86
2023/10/10 16:41:03;;;;;;;21.38;14.10;;;18.70;99.90;;;;;;5027131;28;20128;-86
2023/10/10 16:43:29;;;;;;;18.63;13.88;;;18.70;99.90;;;;;;5009456;28;20503;-86
2023/10/10 16:45:55;;;;;;;21.42;14.02;;;18.50;99.90;;;;;;5009442;28;20120;-87
2023/10/10 16:48:20;;;;;;;17.65;13.43;;;18.50;99.90;;;;;;5008111;28;20419;-86
2023/10/10 16:50:46;;;;;;;15.40;13.18;;;18.50;99.90;;;;;;4993066;28;20098;-85
2023/10/10 16:53:13;;;;;;;18.08;13.60;;;18.40;99.90;;;;;;5009715;28;20615;-86
2023/10/10 16:55:41;;;;;;;17.92;13.77;;;18.30;99.90;;;;;;5010065;28;20068;-87
2023/10/10 16:58:06;;;;;;;17.33;13.85;;;18.30;99.90;;;;;;5010172;28;20048;-86
2023/10/10 17:00:34;;;;;;;19.65;13.38;;;18.30;99.90;;;;;;5009691;28;20045;-88
2023/10/10 17:03:00;;;;;;;18.48;13.55;;;18.20;99.90;;;;;;4993848;28;20052;-87
2023/10/10 17:05:25;;;;;;;18.50;14.25;;;18.20;99.90;;;;;;5009945;28;20383;-86
2023/10/10 17:07:51;;;;;;;20.20;14.23;;;18.10;99.90;;;;;;5009425;28;20609;-86
2023/10/10 17:10:17;;;;;;;18.85;14.23;;;18.00;99.90;;;;;;4993021;28;20041;-87
2023/10/10 17:12:43;;;;;;;16.17;12.82;;;18.00;99.90;;;;;;5009902;28;20679;-87
2023/10/10 17:15:18;;;;;;;18.75;14.30;;;18.00;99.90;;;;;;4991947;28;20061;-86
2023/10/10 17:17:48;;;;;;;18.02;12.95;;;17.90;99.90;;;;;;5027054;28;20052;-86
2023/10/10 17:20:17;;;;;;;18.90;14.05;;;18.10;99.90;;;;;;5002065;28;20049;-86
2023/10/10 17:22:50;;;;;;;18.65;13.30;;;17.90;99.90;;;;;;4992345;28;20072;-84
2023/10/10 17:25:16;;;;;;;20.20;13.82;;;17.80;99.90;;;;;;4992764;28;20045;-84
2023/10/10 17:27:44;;;;;;;16.98;13.80;;;17.70;99.90;;;;;;5009335;28;20084;-86
2023/10/10 17:30:14;;;;;;;21.67;13.90;;;17.70;99.90;;;;;;4992096;28;20470;-86
2023/10/10 17:32:40;;;;;;;17.38;13.60;;;17.70;99.90;;;;;;5008995;28;20054;-86
2023/10/10 17:35:09;;;;;;;17.75;13.60;;;17.90;99.90;;;;;;5009001;28;20434;-84
2023/10/10 17:37:35;;;;;;;21.73;14.75;;;17.70;99.90;;;;;;5008971;28;20060;-85
2023/10/10 17:40:05;;;;;;;17.55;13.48;;;17.60;99.90;;;;;;4993154;28;20041;-85
2023/10/10 17:42:31;;;;;;;21.23;14.77;;;17.70;99.90;;;;;;5013035;28;20774;-85
2023/10/10 17:44:58;;;;;;;18.63;12.60;;;17.70;99.90;;;;;;5011868;28;20167;-84
2023/10/10 17:47:28;;;;;;;18.65;15.20;;;17.80;99.90;;;;;;5013004;28;20060;-86
2023/10/10 17:49:56;;;;;;;16.80;13.38;;;17.60;99.90;;;;;;5012649;28;20169;-83
2023/10/10 17:52:23;;;;;;;17.83;14.15;;;17.60;99.90;;;;;;5012595;28;20147;-84
2023/10/10 17:54:50;;;;;;;18.60;13.32;;;17.50;99.90;;;;;;4995993;28;20068;-85
2023/10/10 17:57:16;;;;;;;19.60;14.48;;;17.50;99.90;;;;;;4996255;28;20056;-84
2023/10/10 17:59:43;;;;;;;22.48;14.57;;;17.70;99.90;;;;;;5012396;28;20114;-84
2023/10/10 18:02:08;;;;;;;17.90;13.70;;;17.40;99.90;;;;;;4996219;28;20056;-83
2023/10/10 18:04:43;;;;;;;18.10;14.57;;;17.40;99.90;;;;;;5031188;28;20041;-84
2023/10/10 18:07:12;;;;;;;18.00;14.30;;;17.40;99.90;;;;;;5030360;28;20080;-84
2023/10/10 18:09:38;;;;;;;16.77;13.07;;;17.40;99.90;;;;;;5012599;28;20140;-84
2023/10/10 18:12:04;;;;;;;20.02;14.40;;;17.30;99.90;;;;;;5012798;28;20152;-84
2023/10/10 18:14:29;;;;;;;19.45;14.00;;;17.20;99.90;;;;;;5013162;28;20083;-85
2023/10/10 18:16:58;;;;;;;19.52;15.10;;;17.20;99.90;;;;;;5012258;28;20120;-85
2023/10/10 18:19:26;;;;;;;17.55;14.48;;;17.20;99.90;;;;;;5012249;28;20096;-84
2023/10/10 18:21:53;;;;;;;20.30;13.73;;;17.10;99.90;;;;;;4996822;28;20057;-85
2023/10/10 18:24:27;;;;;;;18.00;14.50;;;16.70;99.90;;;;;;5012731;28;20850;-85
2023/10/10 18:26:57;;;;;;;20.67;14.50;;;17.00;99.90;;;;;;4996030;28;20099;-84
2023/10/10 18:29:23;;;;;;;18.10;14.80;;;16.90;99.90;;;;;;5012270;28;20041;-84
2023/10/10 18:31:49;;;;;;;17.10;14.68;;;16.90;99.90;;;;;;5011777;28;20045;-85